TimeEDT,TemperatureF,Dew PointF,Humidity,Sea Level PressureIn,VisibilityMPH,Wind Direction,Wind SpeedMPH,Gust SpeedMPH,PrecipitationIn,Events,Conditions,WindDirDegrees,DateUTC
12:58 AM,59.2,54.3,84,30.04,10.0,North,4.6,-,N/A,,Clear,10,2013-07-25 04:58:00
1:58 AM,56.8,53.1,87,30.03,10.0,NE,4.6,-,N/A,,Clear,50,2013-07-25 05:58:00
2:58 AM,58.3,53.2,83,30.04,10.0,NNE,3.5,-,N/A,,Clear,20,2013-07-25 06:58:00
3:58 AM,55.6,52.9,91,30.04,10.0,Calm,Calm,-,N/A,,Clear,0,2013-07-25 07:58:00
4:58 AM,55.9,52.9,89,30.04,10.0,Calm,Calm,-,N/A,,Clear,0,2013-07-25 08:58:00
5:58 AM,55.0,52.2,90,30.04,10.0,NNE,3.5,-,N/A,,Clear,20,2013-07-25 09:58:00
6:58 AM,55.2,52.3,90,30.06,10.0,North,3.5,-,N/A,,Clear,10,2013-07-25 10:58:00
7:58 AM,56.8,53.1,87,30.08,10.0,NE,5.8,-,N/A,,Clear,50,2013-07-25 11:58:00
8:58 AM,61.3,54.0,77,30.09,10.0,NE,5.8,-,N/A,,Clear,40,2013-07-25 12:58:00
9:58 AM,65.3,53.2,65,30.09,10.0,NE,5.8,-,N/A,,Clear,50,2013-07-25 13:58:00
10:58 AM,68.5,52.3,56,30.09,10.0,NE,8.1,-,N/A,,Partly Cloudy,40,2013-07-25 14:58:00
11:58 AM,70.3,53.2,55,30.10,10.0,NE,9.2,-,N/A,,Partly Cloudy,50,2013-07-25 15:58:00
12:58 PM,71.8,54.1,54,30.10,10.0,Variable,6.9,-,N/A,,Partly Cloudy,0,2013-07-25 16:58:00
1:58 PM,73.4,54.5,51,30.09,10.0,Variable,6.9,-,N/A,,Partly Cloudy,0,2013-07-25 17:58:00
2:58 PM,74.5,54.1,49,30.09,10.0,ENE,8.1,-,N/A,,Partly Cloudy,60,2013-07-25 18:58:00
3:58 PM,75.9,54.3,47,30.09,10.0,NE,6.9,-,N/A,,Partly Cloudy,50,2013-07-25 19:58:00
4:58 PM,76.1,54.5,47,30.08,10.0,NNW,5.8,-,N/A,,Partly Cloudy,330,2013-07-25 20:58:00
5:55 PM,76.3,54.9,47,30.07,10.0,Variable,5.8,-,N/A,,Partly Cloudy,0,2013-07-25 21:55:00
6:55 PM,75.4,54.3,48,30.07,10.0,NNE,5.8,-,N/A,,Partly Cloudy,30,2013-07-25 22:55:00
7:55 PM,73.4,55.4,53,30.08,10.0,North,5.8,-,N/A,,Clear,10,2013-07-25 23:55:00
8:55 PM,71.8,56.1,58,30.09,10.0,NNW,5.8,-,N/A,,Partly Cloudy,330,2013-07-26 00:55:00
9:58 PM,66.9,58.1,73,30.10,10.0,North,3.5,-,N/A,,Partly Cloudy,360,2013-07-26 01:58:00
10:58 PM,65.5,58.1,77,30.10,10.0,Calm,Calm,-,N/A,,Partly Cloudy,0,2013-07-26 02:58:00
11:58 PM,64.4,58.3,80,30.11,10.0,Calm,Calm,-,N/A,,Partly Cloudy,0,2013-07-26 03:58:00